Merrifield, Minnesota
Current Conditions -  °F | °C
As of 12:04 PM on Thursday 23 Oct 2014 (Local Time) from KBRD Reporting Station
Scattered Clouds Scattered Clouds  
Wind Chill: 54°   Ceiling: Unl
Heat Index: 54°   Visibility: 10mi
Dew Point: 50°   Wind: 7mph
Humidity: 86%   Direction: 190°S
Pressure: 29.97"   Gusts: NA
Location:  46.46°N, 94.17°W
Report Text: KBRD 231704Z AUTO 19006KT 10SM SCT009 12/10 A2997 RMK AO2 T01220100
Loading
Personal Weather Stations






























Interactive Weather Map
Tropical Storm Tracking
New forecast layout! Learn more

10-Day Weather Forecast

Advertisements
Track Severe Weather on mobile